Latest Weather Observations for Kanagulk

IDV60801

Issued at 3:03 pm EDT Tuesday 17 October 2017 (issued every 30 minutes, with the page automatically refreshed every 10 minutes)

About weather observations | Map of weather stations | Latest weather observations for VIC | Other Formats
Station Details ID: 079097 Name: KANAGULK Lat: -37.12 Lon: 141.80 Height: 188.8 m
Data from the previous 72 hours. | See also: Recent months at Kanagulk
Date/Time
EDT
Temp
°C
App
Temp
°C
Dew
Point
°C
Rel
Hum
%
Delta-T
°C
Wind Press
QNH
hPa
Press
MSL
hPa
Rain since
9am
mm
Dir  Spd
km/h
Gust
km/h
Spd
kts
Gust
kts
17/03:00pm 29.5 24.7 5.6 22 12.6 N 20 37 11 20 1018.8 1018.7 0.0
17/02:30pm 29.1 23.7 6.5 24 12.1 N 24 35 13 19 1019.3 1019.2 0.0
17/02:00pm 28.4 22.7 6.5 25 11.7 NNE 26 35 14 19 1019.6 1019.5 0.0
17/01:30pm 28.1 23.6 6.8 26 11.4 NNE 20 30 11 16 1019.6 1019.5 0.0
17/01:00pm 27.5 22.8 7.9 29 10.6 NNE 22 37 12 20 1020.0 1019.9 0.0
17/12:30pm 26.2 21.2 8.2 32 9.8 NNE 24 32 13 17 1020.5 1020.4 0.0
17/12:00pm 25.3 21.2 8.7 35 9.0 NNE 20 33 11 18 1020.8 1020.7 0.0
17/11:30am 24.2 19.5 9.4 39 8.1 NNE 24 33 13 18 1021.2 1021.1 0.0
17/11:00am 23.5 19.7 11.2 46 6.9 NE 22 30 12 16 1021.1 1021.0 0.0
17/10:30am 22.3 18.2 8.8 42 7.2 NNE 20 30 11 16 1021.2 1021.1 0.0
17/10:00am 21.3 17.3 10.5 50 5.9 NE 22 28 12 15 1021.2 1021.1 0.0
17/09:30am 20.0 15.6 10.4 54 5.2 NNE 24 33 13 18 1021.2 1021.1 0.0
17/09:00am 19.1 14.6 9.9 55 4.9 NE 24 35 13 19 1021.1 1021.0 0.0
17/08:30am 17.9 13.8 10.0 60 4.2 NE 22 32 12 17 1021.1 1021.0 0.0
17/08:00am 16.8 13.2 10.4 66 3.4 NE 20 26 11 14 1020.9 1020.8 0.0
17/07:30am 15.5 12.3 10.1 70 2.9 NE 17 24 9 13 1020.9 1020.8 0.0
17/07:00am 14.8 11.9 9.6 71 2.7 NE 15 20 8 11 1020.6 1020.5 0.0
17/06:30am 14.7 11.3 9.1 69 2.9 NE 17 28 9 15 1020.4 1020.3 0.0
17/06:00am 13.9 11.1 8.7 71 2.6 NE 13 17 7 9 1020.2 1020.1 0.0
17/05:30am 14.2 11.4 8.4 68 2.9 NNE 13 17 7 9 1020.1 1020.0 0.0
17/05:00am 14.8 11.6 8.3 65 3.3 NNE 15 19 8 10 1020.0 1019.9 0.0
17/04:30am 15.4 11.8 8.4 63 3.6 NE 17 20 9 11 1020.0 1019.9 0.0
17/04:00am 15.7 12.1 8.4 62 3.7 NNE 17 20 9 11 1020.0 1019.9 0.0
17/03:30am 16.5 13.1 9.0 61 3.9 NNE 17 22 9 12 1020.0 1019.9 0.0
17/03:00am 17.0 13.3 9.4 61 4.0 NNE 19 26 10 14 1020.0 1019.9 0.0
17/02:30am 17.6 14.0 9.8 60 4.1 NNE 19 24 10 13 1020.2 1020.1 0.0
17/02:00am 18.2 14.5 10.3 60 4.2 NE 20 28 11 15 1020.5 1020.4 0.0
17/01:30am 18.4 14.9 11.0 62 4.0 NE 20 26 11 14 1020.7 1020.6 0.0
17/01:00am 16.1 13.5 11.9 76 2.3 NE 17 20 9 11 1020.9 1020.8 0.0
17/12:30am 15.4 14.5 11.4 77 2.2 ENE 7 9 4 5 1021.1 1021.0 0.0
17/12:00am 16.1 15.2 10.6 70 2.9 E 6 7 3 4 1021.2 1021.1 0.0
 
Date/Time
EDT
Temp
°C
App
Temp
°C
Dew
Point
°C
Rel
Hum
%
Delta-T
°C
Wind Press
QNH
hPa
Press
MSL
hPa
Rain since
9am
mm
Dir  Spd
km/h
Gust
km/h
Spd
kts
Gust
kts
16/11:30pm 16.5 15.6 10.8 69 3.1 SE 6 7 3 4 1021.2 1021.1 0.0
16/11:00pm 17.0 16.0 11.1 68 3.2 SE 7 7 4 4 1021.3 1021.2 0.0
16/10:30pm 17.5 16.5 11.1 66 3.5 ESE 7 9 4 5 1021.3 1021.2 0.0
16/10:00pm 18.4 17.5 11.2 63 3.9 ESE 7 9 4 5 1021.2 1021.1 0.0
16/09:30pm 18.2 17.6 12.2 68 3.4 ESE 7 9 4 5 1021.1 1021.0 0.0
16/09:00pm 19.0 18.6 13.0 68 3.4 ESE 7 9 4 5 1020.9 1020.8 0.0
16/08:30pm 19.2 18.9 13.2 68 3.4 E 7 9 4 5 1020.6 1020.5 0.0
16/08:00pm 20.2 19.9 14.3 69 3.4 E 9 11 5 6 1020.4 1020.3 0.0
16/07:30pm 22.0 22.0 14.1 61 4.6 E 7 9 4 5 1020.3 1020.2 0.0
16/07:00pm 23.6 23.9 14.9 58 5.2 E 7 11 4 6 1020.2 1020.1 0.0
16/06:30pm 25.1 24.5 13.6 49 6.8 E 9 13 5 7 1020.3 1020.2 0.0
16/06:00pm 25.9 24.6 11.3 40 8.3 ENE 9 15 5 8 1020.3 1020.2 0.0
16/05:30pm 26.2 24.5 12.3 42 8.1 E 13 19 7 10 1020.4 1020.3 0.0
16/05:00pm 26.6 25.7 11.5 39 8.7 NNE 7 17 4 9 1020.5 1020.4 0.0
16/04:30pm 26.5 24.0 11.0 38 8.8 ENE 15 20 8 11 1020.7 1020.6 0.0
16/04:00pm 26.4 24.2 10.9 38 8.8 ENE 13 22 7 12 1020.8 1020.7 0.0
16/03:30pm 26.4 24.1 10.5 37 9.0 ENE 13 22 7 12 1021.1 1021.0 0.0
16/03:00pm 26.0 23.4 9.4 35 9.2 ENE 13 20 7 11 1021.5 1021.4 0.0
16/02:30pm 26.6 24.4 9.5 34 9.5 N 11 22 6 12 1021.9 1021.8 0.0
16/02:00pm 26.0 24.0 13.8 47 7.2 NNE 17 28 9 15 1022.1 1022.1 0.0
16/01:30pm 25.2 22.5 12.8 46 7.2 NE 19 26 10 14 1022.3 1022.3 0.0
16/01:00pm 24.6 23.0 13.8 51 6.4 NNE 15 22 8 12 1022.6 1022.6 0.0
16/12:30pm 24.3 22.0 12.9 49 6.6 NE 17 26 9 14 1022.9 1022.9 0.0
16/12:00pm 24.0 22.7 14.7 56 5.6 NE 15 24 8 13 1023.4 1023.4 0.0
16/11:30am 23.1 20.6 12.4 51 6.1 NNE 17 26 9 14 1023.8 1023.8 0.0
16/11:00am 22.8 20.8 13.8 57 5.3 NE 17 22 9 12 1024.0 1024.0 0.0
16/10:30am 21.6 18.6 12.5 56 5.2 NNE 20 26 11 14 1024.0 1024.0 0.0
16/10:00am 20.7 18.6 13.6 64 4.1 NE 17 28 9 15 1023.9 1023.9 0.0
16/09:30am 19.1 17.0 13.5 70 3.2 NE 17 24 9 13 1023.9 1023.9 0.0
16/09:00am 17.1 15.8 13.6 80 2.0 NE 13 19 7 10 1023.9 1023.9 0.2
16/08:30am 13.9 13.9 13.7 99 0.1 NE 6 13 3 7 1023.8 1023.8 0.2
16/08:00am 11.0 11.3 11.0 100 0.0 CALM 0 0 0 0 1023.7 1023.7 0.2
16/07:30am 8.7 8.4 8.7 100 0.0 CALM 0 0 0 0 1023.4 1023.4 0.2
16/07:00am 7.9 7.4 7.9 100 0.0 CALM 0 0 0 0 1023.0 1023.0 0.2
16/06:30am 8.2 7.8 8.2 100 0.0 CALM 0 0 0 0 1022.7 1022.7 0.2
16/06:00am 8.4 8.0 8.4 100 0.0 CALM 0 0 0 0 1022.5 1022.5 0.2
16/05:30am 8.4 6.7 8.3 99 0.0 SSE 7 7 4 4 1022.4 1022.4 0.2
16/05:00am 8.7 7.1 8.6 99 0.0 SE 7 9 4 5 1022.2 1022.2 0.2
16/04:30am 8.6 6.9 8.5 99 0.0 SE 7 9 4 5 1022.4 1022.4 0.2
16/04:00am 9.2 7.9 9.1 99 0.0 SE 6 7 3 4 1022.4 1022.4 0.2
16/03:30am 9.5 8.1 9.5 100 0.0 SE 7 9 4 5 1022.4 1022.4 0.2
16/03:00am 9.0 7.1 8.9 99 0.0 SSE 9 11 5 6 1022.5 1022.5 0.2
16/02:30am 9.0 6.7 8.9 99 0.0 SSE 11 11 6 6 1022.8 1022.8 0.2
16/02:00am 9.7 7.9 9.6 99 0.1 SSE 9 11 5 6 1022.9 1022.9 0.2
16/01:30am 10.5 8.2 10.3 99 0.1 SSE 13 17 7 9 1023.2 1023.2 0.2
16/01:00am 10.4 8.4 10.2 99 0.1 SSE 11 15 6 8 1023.2 1023.2 0.2
16/12:30am 10.4 8.4 10.2 99 0.1 SSE 11 13 6 7 1023.1 1023.1 0.2
16/12:00am 10.8 8.9 10.6 99 0.1 SSE 11 15 6 8 1023.2 1023.2 0.2
 
Date/Time
EDT
Temp
°C
App
Temp
°C
Dew
Point
°C
Rel
Hum
%
Delta-T
°C
Wind Press
QNH
hPa
Press
MSL
hPa
Rain since
9am
mm
Dir  Spd
km/h
Gust
km/h
Spd
kts
Gust
kts
15/11:30pm 11.7 9.3 11.5 99 0.1 SSE 15 19 8 10 1023.3 1023.3 0.2
15/11:00pm 12.2 10.0 12.0 99 0.1 SSE 15 19 8 10 1023.3 1023.3 0.2
15/10:30pm 12.7 11.0 12.5 99 0.1 SSE 13 17 7 9 1023.3 1023.3 0.2
15/10:00pm 13.0 11.4 12.8 99 0.1 SSE 13 17 7 9 1023.1 1023.1 0.2
15/09:30pm 13.3 11.6 12.4 94 0.5 SSE 13 17 7 9 1023.1 1023.1 0.2
15/09:00pm 13.8 11.7 11.1 84 1.4 SSE 13 15 7 8 1023.1 1023.1 0.2
15/08:30pm 14.1 11.9 10.9 81 1.7 SSE 13 15 7 8 1023.0 1023.0 0.2
15/08:00pm 14.5 12.6 10.5 77 2.1 SSE 11 15 6 8 1022.8 1022.8 0.2
15/07:30pm 16.6 13.7 11.1 70 3.0 SSE 17 20 9 11 1022.7 1022.7 0.2
15/07:00pm 17.9 15.3 12.1 69 3.2 SSE 17 20 9 11 1022.5 1022.5 0.2
15/06:30pm 18.9 15.9 11.9 64 3.9 SSE 19 22 10 12 1022.4 1022.4 0.2
15/06:00pm 19.7 16.7 12.7 64 4.0 SSE 20 26 11 14 1022.3 1022.3 0.2
15/05:30pm 20.1 17.3 11.3 57 4.9 SSE 17 24 9 13 1022.3 1022.3 0.2
15/05:00pm 20.7 18.6 11.1 54 5.3 SSE 13 19 7 10 1022.2 1022.2 0.2
15/04:30pm 20.9 18.8 11.3 54 5.3 S 13 20 7 11 1022.4 1022.4 0.2
15/04:00pm 20.8 18.8 11.4 55 5.2 S 13 19 7 10 1022.6 1022.6 0.2
15/03:30pm 21.4 20.9 12.0 55 5.3 SE 6 13 3 7 1022.7 1022.7 0.2
15/03:00pm 21.0 20.4 11.6 55 5.2 SE 6 17 3 9 1022.8 1022.8 0.2
15/02:30pm 20.5 19.5 12.2 59 4.7 SSE 9 17 5 9 1023.0 1023.0 0.2
15/02:00pm 20.2 19.6 11.7 58 4.7 SSW 6 17 3 9 1023.3 1023.3 0.2
15/01:30pm 20.0 18.8 10.4 54 5.2 ENE 7 11 4 6 1023.4 1023.4 0.2
15/01:00pm 19.0 17.6 8.9 52 5.3 SE 6 15 3 8 1023.6 1023.6 0.2
15/12:30pm 18.7 17.7 8.7 52 5.2 S 4 13 2 7 1024.0 1024.0 0.2
15/12:00pm 18.0 16.6 9.4 57 4.5 SSW 7 13 4 7 1024.3 1024.2 0.2
15/11:30am 17.1 15.7 8.8 58 4.3 SE 6 11 3 6 1024.6 1024.5 0.2
15/11:00am 16.3 15.0 9.3 63 3.6 SSE 6 11 3 6 1024.8 1024.7 0.0
15/10:30am 15.5 14.3 9.4 67 3.2 S 6 9 3 5 1024.9 1024.8 0.0
15/10:00am 14.2 12.2 10.0 76 2.2 SSE 11 15 6 8 1024.8 1024.7 0.0
15/09:30am 12.9 10.5 10.1 83 1.5 SSE 13 17 7 9 1024.8 1024.7 0.0
15/09:00am 11.4 8.9 9.8 90 0.8 SSE 13 17 7 9 1024.6 1024.5 0.0
15/08:30am 9.5 6.9 9.4 99 0.1 SSE 13 20 7 11 1024.6 1024.5 0.0
15/08:00am 8.0 5.8 7.9 99 0.0 SSE 9 13 5 7 1024.7 1024.6 0.0
15/07:30am 5.8 3.1 5.7 99 0.0 SSE 9 11 5 6 1024.4 1024.3 0.0
15/07:00am 5.2 2.4 5.1 99 0.0 SSE 9 11 5 6 1024.0 1024.0 0.0
15/06:30am 5.0 2.1 4.9 99 0.0 SSE 9 13 5 7 1023.5 1023.5 0.0
15/06:00am 6.1 5.2 6.0 99 0.0 CALM 0 0 0 0 1023.5 1023.5 0.0
15/05:30am 6.3 4.7 6.2 99 0.0 S 4 7 2 4 1023.4 1023.4 0.0
15/05:00am 6.6 4.7 6.5 99 0.0 SSW 6 7 3 4 1023.4 1023.4 0.0
15/04:30am 6.3 4.1 6.2 99 0.0 SSE 7 7 4 4 1023.3 1023.3 0.0
15/04:00am 6.3 4.3 6.2 99 0.0 S 6 7 3 4 1023.5 1023.5 0.0
15/03:30am 6.6 4.5 6.5 99 0.0 S 7 9 4 5 1023.5 1023.5 0.0
15/03:00am 6.6 4.5 6.5 99 0.0 S 7 9 4 5 1023.6 1023.6 0.0
15/02:30am 7.7 4.7 7.6 99 0.0 S 13 20 7 11 1023.6 1023.6 0.0
15/02:00am 7.8 5.2 7.7 99 0.0 S 11 15 6 8 1024.0 1024.0 0.0
15/01:30am 8.1 5.6 8.0 99 0.0 SSE 11 15 6 8 1024.3 1024.2 0.0
15/01:00am 8.4 5.5 8.3 99 0.0 SSE 13 19 7 10 1024.3 1024.2 0.0
15/12:30am 8.7 5.9 8.6 99 0.0 S 13 17 7 9 1024.4 1024.3 0.0
15/12:00am 9.3 6.3 9.2 99 0.0 S 15 19 8 10 1024.4 1024.3 0.0
 
Date/Time
EDT
Temp
°C
App
Temp
°C
Dew
Point
°C
Rel
Hum
%
Delta-T
°C
Wind Press
QNH
hPa
Press
MSL
hPa
Rain since
9am
mm
Dir  Spd
km/h
Gust
km/h
Spd
kts
Gust
kts
14/11:30pm 9.6 6.6 9.3 98 0.2 S 15 19 8 10 1024.6 1024.5 0.0
14/11:00pm 9.9 6.6 9.4 97 0.2 SSE 17 20 9 11 1024.5 1024.4 0.0
14/10:30pm 10.7 7.5 9.8 94 0.5 SSE 17 24 9 13 1024.7 1024.6 0.0
14/10:00pm 10.5 7.6 9.6 94 0.5 SSE 15 20 8 11 1024.7 1024.6 0.0
14/09:30pm 11.2 8.4 10.0 92 0.6 SSE 15 19 8 10 1024.6 1024.5 0.0
14/09:00pm 10.5 7.9 9.3 92 0.6 SSE 13 19 7 10 1024.4 1024.3 0.0
14/08:30pm 11.1 8.7 8.7 85 1.2 SSE 11 13 6 7 1024.4 1024.3 0.0
14/08:00pm 12.4 10.1 8.9 79 1.8 SSE 11 15 6 8 1024.1 1024.1 0.0
14/07:30pm 14.5 11.8 8.9 69 2.9 S 13 17 7 9 1023.9 1023.9 0.0
14/07:00pm 15.4 12.7 9.1 66 3.2 S 13 20 7 11 1023.8 1023.8 0.0
14/06:30pm 15.1 12.4 9.0 67 3.1 S 13 17 7 9 1023.7 1023.7 0.0
14/06:00pm 16.9 13.1 9.1 60 4.1 S 19 26 10 14 1023.5 1023.5 0.0
14/05:30pm 17.2 13.2 9.1 59 4.2 S 20 26 11 14 1023.5 1023.5 0.0
14/05:00pm 17.7 14.4 9.6 59 4.3 SSW 17 24 9 13 1023.5 1023.5 0.0
14/04:30pm 17.1 13.4 9.3 60 4.1 S 19 28 10 15 1023.5 1023.5 0.0
14/04:00pm 17.9 15.3 9.3 57 4.5 SSW 13 20 7 11 1023.5 1023.5 0.0
14/03:30pm 18.0 15.5 11.1 64 3.8 S 15 22 8 12 1023.7 1023.7 0.0

Other Formats:

Comma delimited format used in spreadsheet applications
http://www.bom.gov.au/fwo/IDV60801/IDV60801.95827.axf

JavaScript Object Notation format (JSON) in row-major order
http://www.bom.gov.au/fwo/IDV60801/IDV60801.95827.json